METAR for South England South Wales and Channel Islands - 12 Dec 2017 - 2348 UTC - RocketRoute WX - rrwx.com
EGJA   EGUB 122250Z 16013KT 9000 -RA FEW010 BKN028 05/04 Q1004 BLU EGKB   EGDM 122250Z AUTO 18012KT 3000 -RA BKN002/// 06/06 Q1004 EGHH   EGGD 122320Z AUTO 22012KT 7000 -RA OVC002 07/07 Q1002 RERA REDZ EGVN 122250Z 20006KT 7000 -RA FEW006 OVC009 04/03 Q1003 GRN TEMPO 4000 -RADZ BKN006 YLO1 EGFF 122320Z AUTO 26016KT 9999 BKN011 OVC020 09/08 Q1002 EGTC   EGDR 122250Z 29009KT 9999 FEW018 SCT025 08/07 Q1006 BLU EGTE 122320Z 24006KT 200V260 8000 RA BKN008 09/08 Q1003 EGLF   EGTG   EGBJ   EGJB   EGJJ 122320Z AUTO 19014KT 9999 FEW015/// BKN020/// OVC025/// 08/07 Q1009 REDZ EGGW 122320Z AUTO 19009KT 150V210 6000 -RA FEW004/// SCT012/// BKN035/// //////TCU 03/03 Q1004 EGLC 122320Z AUTO 18005KT 150V220 9999 -RA BKN032 07/04 Q1006 EGKK 122320Z 21006KT 9999 -RA BKN023 BKN029 07/05 Q1006 EGLL 122320Z AUTO 19009KT 170V240 9999 -RA SCT028 SCT033 BKN044TCU 06/04 Q1005 TEMPO 6000 -RA BKN012 EGSS 122320Z AUTO 17010KT 9999 -RA BKN025/// OVC030/// //////TCU 03/02 Q1005 EGMD 122320Z AUTO 21016KT 4200 RA FEW012/// SCT018/// BKN023/// 07/06 Q1008 RERA EGDL   EGMH   EGVP 122250Z AUTO 18010KT 4200 // BKN006/// SCT013/// 06/05 Q1004 EGHQ   EGWU 122250Z AUTO 19006KT 3000 // BKN027/// 05/04 Q1005 EGHK   EGHE   EGKA   EGHI   EGMC 122250Z 19011KT 9999 -RA FEW020 BKN044 06/03 Q1006 EGDX 122250Z AUTO 23017KT 9999 FEW015/// BKN021/// 09/07 Q1001 RERA EGDY 122250Z 21014KT 8000 -DZ FEW012 BKN024 OVC045 09/08 Q1004 WHT NOSIG

RocketRoute WX - rrwx.com weather for pilots